createdAt,value
2022-12-24T00:01:03.798Z,8.6
2022-12-24T00:05:32.672Z,8.6
2022-12-24T00:10:21.824Z,8.7
2022-12-24T00:15:26.840Z,8.6
2022-12-24T00:20:53.909Z,8.6
2022-12-24T00:25:21.354Z,8.6
2022-12-24T00:30:27.521Z,8.6
2022-12-24T00:35:16.483Z,8.6
2022-12-24T00:40:44.526Z,8.5
2022-12-24T00:45:28.599Z,8.4
2022-12-24T00:50:17.694Z,8.3
2022-12-24T00:55:23.661Z,8.3
2022-12-24T01:00:54.877Z,8.3
2022-12-24T01:05:18.338Z,8.3
2022-12-24T01:10:24.163Z,8.4
2022-12-24T01:15:30.481Z,8.3
2022-12-24T01:20:41.029Z,8.2
2022-12-24T01:25:24.900Z,8.2
2022-12-24T01:30:30.965Z,8.1
2022-12-24T01:35:20.088Z,8.2
2022-12-24T01:40:50.149Z,8.3
2022-12-24T01:45:32.368Z,8.3
2022-12-24T01:50:21.253Z,8.3
2022-12-24T01:55:27.363Z,8.4
2022-12-24T02:00:46.642Z,8.4
2022-12-24T02:05:23.232Z,8.4
2022-12-24T02:10:28.704Z,8.5
2022-12-24T02:15:17.845Z,8.5
2022-12-24T02:20:42.798Z,8.3
2022-12-24T02:25:29.593Z,8.3
2022-12-24T02:30:18.767Z,8.2
2022-12-24T02:35:24.735Z,8.1
2022-12-24T02:40:52.739Z,8.2
2022-12-24T02:45:19.990Z,8.3
2022-12-24T02:50:26.314Z,8.4
2022-12-24T02:55:32.031Z,8.7
2022-12-24T03:00:52.855Z,8.7
2022-12-24T03:05:26.753Z,8.7
2022-12-24T03:10:32.641Z,8.6
2022-12-24T03:15:22.484Z,8.5
2022-12-24T03:20:50.842Z,8.4
2022-12-24T03:25:16.460Z,8.2
2022-12-24T03:30:22.391Z,8.3
2022-12-24T03:35:28.489Z,8.3
2022-12-24T03:40:37.643Z,8.2
2022-12-24T03:45:23.614Z,8.3
2022-12-24T03:50:30.014Z,8.2
2022-12-24T03:55:18.662Z,8.1
2022-12-24T04:00:50.304Z,8.2
2022-12-24T04:05:32.585Z,8.2
2022-12-24T04:10:19.955Z,8.2
2022-12-24T04:15:25.477Z,8.2
2022-12-24T04:20:49.369Z,8.2
2022-12-24T04:25:20.095Z,8.2
2022-12-24T04:30:26.042Z,8.1
2022-12-24T04:35:32.130Z,8.1
2022-12-24T04:40:41.151Z,8.2
2022-12-24T04:45:27.368Z,8.1
2022-12-24T04:50:16.284Z,8.0
2022-12-24T04:55:22.356Z,8.0
2022-12-24T05:00:54.304Z,8.1
2022-12-24T05:05:17.227Z,8.1
2022-12-24T05:10:23.290Z,8.0
2022-12-24T05:15:29.475Z,7.9
2022-12-24T05:20:42.046Z,8.0
2022-12-24T05:25:24.574Z,7.9
2022-12-24T05:30:30.806Z,7.9
2022-12-24T05:35:19.656Z,7.8
2022-12-24T05:40:44.838Z,8.0
2022-12-24T05:45:31.971Z,8.1
2022-12-24T05:50:20.864Z,8.1
2022-12-24T05:55:27.174Z,8.1
2022-12-24T06:01:00.118Z,8.2
2022-12-24T06:05:24.571Z,8.3
2022-12-24T06:10:27.480Z,8.3
2022-12-24T06:15:23.462Z,8.2
2022-12-24T06:20:38.510Z,8.1
2022-12-24T06:25:28.224Z,8.1
2022-12-24T06:30:18.668Z,8.2
2022-12-24T06:35:23.370Z,8.2
2022-12-24T06:40:53.270Z,8.1
2022-12-24T06:45:18.517Z,8.2
2022-12-24T06:50:24.491Z,8.1
2022-12-24T06:55:30.643Z,8.1
2022-12-24T07:00:49.068Z,7.9
2022-12-24T07:05:25.322Z,7.9
2022-12-24T07:10:31.184Z,7.9
2022-12-24T07:15:20.427Z,7.9
2022-12-24T07:20:46.363Z,7.9
2022-12-24T07:25:31.919Z,7.9
2022-12-24T07:30:22.926Z,7.9
2022-12-24T07:35:26.950Z,7.9
2022-12-24T07:40:36.203Z,7.9
2022-12-24T07:45:22.040Z,8.0
2022-12-24T07:50:28.272Z,7.9
2022-12-24T07:55:17.414Z,7.9
2022-12-24T08:00:55.458Z,8.0
2022-12-24T08:05:34.593Z,8.0
2022-12-24T08:10:18.719Z,8.0
2022-12-24T08:15:24.668Z,8.1
2022-12-24T08:20:55.431Z,8.1
2022-12-24T08:25:19.388Z,8.1
2022-12-24T08:30:25.663Z,8.1
2022-12-24T08:35:31.737Z,8.1
2022-12-24T08:40:42.002Z,8.2
2022-12-24T08:45:26.901Z,8.2
2022-12-24T08:50:32.733Z,8.1
2022-12-24T08:55:21.904Z,8.2
2022-12-24T09:00:51.608Z,8.3
2022-12-24T09:05:16.146Z,8.4
2022-12-24T09:10:23.222Z,8.3
2022-12-24T09:15:28.371Z,8.4
2022-12-24T09:20:36.770Z,8.4
2022-12-24T09:25:23.158Z,8.4
2022-12-24T09:30:29.165Z,8.4
2022-12-24T09:35:18.213Z,8.5
2022-12-24T09:40:43.741Z,8.6
2022-12-24T09:45:30.493Z,8.5
2022-12-24T09:50:19.485Z,8.6
2022-12-24T09:55:25.524Z,8.7
2022-12-24T10:00:58.385Z,8.7
2022-12-24T10:05:20.746Z,8.8
2022-12-24T10:10:26.047Z,8.7
2022-12-24T10:15:32.219Z,8.7
2022-12-24T10:20:35.565Z,8.5
2022-12-24T10:25:27.754Z,8.3
2022-12-24T10:30:17.796Z,8.5
2022-12-24T10:35:22.870Z,8.4
2022-12-24T10:40:48.659Z,8.5
2022-12-24T10:45:17.962Z,8.5
2022-12-24T10:50:24.195Z,8.8
2022-12-24T10:55:30.241Z,8.9
2022-12-24T11:00:51.041Z,9.2
2022-12-24T11:05:24.823Z,9.2
2022-12-24T11:10:30.600Z,9.5
2022-12-24T11:15:19.764Z,9.7
2022-12-24T11:20:26.816Z,9.7
2022-12-24T11:25:31.742Z,9.8
2022-12-24T11:30:20.563Z,9.8
2022-12-24T11:35:26.597Z,9.9
2022-12-24T11:40:51.586Z,10.1
2022-12-24T11:45:21.595Z,10.1
2022-12-24T11:50:27.838Z,10.1
2022-12-24T11:55:17.022Z,10.0
2022-12-24T12:01:02.141Z,10.0
2022-12-24T12:05:29.121Z,9.8
2022-12-24T12:10:17.454Z,9.7
2022-12-24T12:15:23.284Z,9.7
2022-12-24T12:20:48.458Z,9.9
2022-12-24T12:25:18.609Z,9.9
2022-12-24T12:30:24.752Z,9.9
2022-12-24T12:35:30.718Z,9.8
2022-12-24T12:40:46.743Z,9.9
2022-12-24T12:45:25.852Z,10.1
2022-12-24T12:50:32.088Z,10.0
2022-12-24T12:55:24.601Z,9.9
2022-12-24T13:00:57.750Z,9.9
2022-12-24T13:05:32.333Z,9.9
2022-12-24T13:10:21.172Z,9.8
2022-12-24T13:15:27.309Z,9.8
2022-12-24T13:20:31.279Z,9.8
2022-12-24T13:25:22.420Z,10.0
2022-12-24T13:30:28.395Z,10.0
2022-12-24T13:35:17.528Z,10.1
2022-12-24T13:40:25.333Z,9.9
2022-12-24T13:45:29.647Z,9.9
2022-12-24T13:50:18.557Z,10.0
2022-12-24T13:55:24.648Z,10.0
2022-12-24T14:01:08.590Z,10.0
2022-12-24T14:05:21.696Z,10.0
2022-12-24T14:10:24.971Z,9.9
2022-12-24T14:15:31.156Z,9.9
2022-12-24T14:20:39.672Z,9.9
2022-12-24T14:25:25.926Z,9.7
2022-12-24T14:30:32.145Z,9.6
2022-12-24T14:35:21.063Z,9.6
2022-12-24T14:40:47.514Z,9.7
2022-12-24T14:45:16.156Z,9.7
2022-12-24T14:50:22.285Z,9.6
2022-12-24T14:55:28.229Z,9.5
2022-12-24T15:00:43.276Z,9.5
2022-12-24T15:05:23.286Z,9.4
2022-12-24T15:10:29.047Z,9.2
2022-12-24T15:15:17.969Z,8.7
2022-12-24T15:20:41.994Z,8.4
2022-12-24T15:25:30.560Z,8.2
2022-12-24T15:30:19.706Z,7.9
2022-12-24T15:35:25.692Z,7.7
2022-12-24T15:40:52.229Z,7.5
2022-12-24T15:45:27.138Z,7.3
2022-12-24T15:50:26.924Z,7.1
2022-12-24T15:55:33.036Z,6.8
2022-12-24T16:00:48.285Z,6.8
2022-12-24T16:05:27.748Z,6.7
2022-12-24T16:10:16.396Z,6.6
2022-12-24T16:15:22.521Z,6.5
2022-12-24T16:20:47.216Z,6.5
2022-12-24T16:25:17.238Z,6.5
2022-12-24T16:30:23.272Z,6.5
2022-12-24T16:35:29.391Z,6.5
2022-12-24T16:40:45.345Z,6.5
2022-12-24T16:45:24.502Z,6.5
2022-12-24T16:50:30.489Z,6.4
2022-12-24T16:55:19.564Z,6.5
2022-12-24T17:00:59.226Z,6.4
2022-12-24T17:05:30.820Z,6.4
2022-12-24T17:10:20.191Z,6.3
2022-12-24T17:15:25.965Z,6.3
2022-12-24T17:20:57.002Z,6.3
2022-12-24T17:25:20.864Z,6.1
2022-12-24T17:30:27.001Z,5.8
2022-12-24T17:35:16.073Z,5.8
2022-12-24T17:40:44.894Z,5.8
2022-12-24T17:45:28.240Z,5.9
2022-12-24T17:50:17.211Z,5.8
2022-12-24T17:55:23.259Z,5.9
2022-12-24T18:01:19.711Z,6.3
2022-12-24T18:05:17.887Z,6.6
2022-12-24T18:10:23.908Z,6.8
2022-12-24T18:15:29.780Z,6.7
2022-12-24T18:20:46.040Z,6.5
2022-12-24T18:25:25.607Z,6.4
2022-12-24T18:30:27.623Z,6.3
2022-12-24T18:35:20.733Z,6.2
2022-12-24T18:40:48.158Z,6.3
2022-12-24T18:45:32.811Z,6.3
2022-12-24T18:50:21.830Z,6.2
2022-12-24T18:55:27.905Z,5.9
2022-12-24T19:00:44.142Z,5.9
2022-12-24T19:05:22.424Z,5.8
2022-12-24T19:10:28.468Z,5.5
2022-12-24T19:15:18.320Z,5.5
2022-12-24T19:20:46.412Z,5.6
2022-12-24T19:25:29.256Z,5.5
2022-12-24T19:30:18.321Z,5.4
2022-12-24T19:35:24.378Z,5.5
2022-12-24T19:40:49.870Z,5.6
2022-12-24T19:45:19.484Z,5.9
2022-12-24T19:50:25.681Z,6.1
2022-12-24T19:55:31.612Z,6.1
2022-12-24T20:01:07.163Z,6.3
2022-12-24T20:05:29.236Z,6.3
2022-12-24T20:10:32.101Z,6.3
2022-12-24T20:15:21.072Z,6.4
2022-12-24T20:20:42.786Z,6.6
2022-12-24T20:25:15.921Z,6.7
2022-12-24T20:30:21.997Z,6.8
2022-12-24T20:35:28.070Z,6.9
2022-12-24T20:40:39.965Z,7.0
2022-12-24T20:45:23.188Z,7.1
2022-12-24T20:50:29.256Z,7.1
2022-12-24T20:55:18.344Z,7.2
2022-12-24T21:00:52.715Z,7.3
2022-12-24T21:05:30.525Z,7.3
2022-12-24T21:10:19.615Z,7.4
2022-12-24T21:15:25.700Z,7.4
2022-12-24T21:20:55.600Z,7.3
2022-12-24T21:25:20.596Z,7.2
2022-12-24T21:30:26.706Z,7.0
2022-12-24T21:35:32.663Z,7.1
2022-12-24T21:40:41.681Z,7.2
2022-12-24T21:45:27.731Z,7.2
2022-12-24T21:50:16.875Z,7.3
2022-12-24T21:55:22.925Z,7.1
2022-12-24T22:01:03.331Z,6.9
2022-12-24T22:05:17.720Z,6.9
2022-12-24T22:10:23.414Z,6.8
2022-12-24T22:15:29.397Z,6.8
2022-12-24T22:20:37.870Z,6.8
2022-12-24T22:25:24.966Z,6.6
2022-12-24T22:30:30.524Z,6.6
2022-12-24T22:35:19.285Z,6.7
2022-12-24T22:40:50.044Z,6.6
2022-12-24T22:45:31.341Z,6.6
2022-12-24T22:50:20.432Z,6.4
2022-12-24T22:55:26.423Z,6.3
2022-12-24T23:01:04.927Z,6.5
2022-12-24T23:05:21.594Z,6.6
2022-12-24T23:10:29.978Z,6.7
2022-12-24T23:15:18.381Z,6.4
2022-12-24T23:20:39.073Z,6.5
2022-12-24T23:25:28.996Z,6.4
2022-12-24T23:30:16.926Z,6.4
2022-12-24T23:35:23.035Z,6.4
2022-12-24T23:40:48.308Z,6.3
2022-12-24T23:45:18.010Z,6.2
2022-12-24T23:50:24.144Z,6.2
2022-12-24T23:55:30.244Z,6.2
